createdAt,value
2023-02-25T00:02:19.412Z,3.80
2023-02-25T00:07:22.952Z,3.90
2023-02-25T00:12:25.209Z,3.90
2023-02-25T00:17:27.425Z,3.90
2023-02-25T00:22:29.718Z,3.80
2023-02-25T00:27:32.424Z,3.70
2023-02-25T00:32:38.416Z,3.70
2023-02-25T00:37:40.888Z,3.60
2023-02-25T00:42:43.376Z,3.70
2023-02-25T00:47:45.626Z,3.70
2023-02-25T00:52:47.905Z,3.80
2023-02-25T00:57:50.757Z,3.90
2023-02-25T01:02:53.150Z,3.90
2023-02-25T01:07:55.435Z,3.90
2023-02-25T01:12:57.697Z,3.90
2023-02-25T01:18:00.001Z,3.90
2023-02-25T01:23:02.493Z,3.90
2023-02-25T01:28:07.124Z,3.90
2023-02-25T01:33:09.390Z,3.80
2023-02-25T01:38:11.627Z,3.80
2023-02-25T01:43:16.443Z,3.80
2023-02-25T01:48:22.742Z,3.90
2023-02-25T01:53:33.296Z,3.90
2023-02-25T01:58:35.536Z,3.90
2023-02-25T02:03:39.125Z,4.00
2023-02-25T02:08:44.204Z,4.00
2023-02-25T02:13:56.399Z,4.00
2023-02-25T02:19:09.986Z,4.10
2023-02-25T02:24:51.856Z,4.10
2023-02-25T02:30:11.540Z,4.00
2023-02-25T02:35:16.669Z,4.00
2023-02-25T02:40:53.376Z,4.10
2023-02-25T02:46:01.225Z,4.00
2023-02-25T02:51:10.485Z,4.20
2023-02-25T02:56:17.033Z,4.00
2023-02-25T03:01:27.885Z,4.10
2023-02-25T03:06:35.348Z,4.10
2023-02-25T03:11:37.761Z,4.20
2023-02-25T03:17:04.670Z,4.30
2023-02-25T03:22:27.435Z,4.20
2023-02-25T03:27:37.843Z,4.10
2023-02-25T03:32:45.310Z,4.10
2023-02-25T03:37:52.516Z,4.10
2023-02-25T03:43:02.658Z,4.00
2023-02-25T03:48:06.737Z,4.10
2023-02-25T03:53:09.116Z,4.10
2023-02-25T03:58:38.463Z,4.10
2023-02-25T04:03:40.823Z,4.10
2023-02-25T04:08:43.570Z,4.10
2023-02-25T04:13:45.835Z,4.00
2023-02-25T04:18:48.564Z,4.00
2023-02-25T04:23:50.963Z,3.90
2023-02-25T04:28:53.401Z,3.70
2023-02-25T04:33:58.429Z,3.60
2023-02-25T04:39:04.408Z,3.40
2023-02-25T04:44:07.551Z,3.50
2023-02-25T04:49:10.383Z,3.40
2023-02-25T04:54:13.178Z,3.30
2023-02-25T04:59:16.136Z,3.30
2023-02-25T05:04:18.484Z,3.20
2023-02-25T05:09:21.308Z,3.10
2023-02-25T05:14:23.832Z,3.20
2023-02-25T05:19:26.197Z,3.10
2023-02-25T05:24:28.542Z,3.10
2023-02-25T05:29:30.880Z,3.00
2023-02-25T05:34:34.039Z,2.90
2023-02-25T05:39:36.386Z,2.90
2023-02-25T05:44:38.676Z,2.90
2023-02-25T05:49:42.739Z,2.90
2023-02-25T05:54:45.273Z,2.90
2023-02-25T05:59:47.595Z,2.90
2023-02-25T06:04:53.522Z,2.90
2023-02-25T06:09:59.982Z,2.80
2023-02-25T06:15:02.252Z,2.80
2023-02-25T06:20:05.666Z,2.80
2023-02-25T06:25:08.556Z,2.80
2023-02-25T06:30:11.434Z,2.80
2023-02-25T06:35:14.775Z,2.80
2023-02-25T06:40:17.627Z,2.90
2023-02-25T06:45:20.035Z,2.90
2023-02-25T06:50:22.337Z,2.80
2023-02-25T06:55:24.685Z,2.70
2023-02-25T07:00:27.099Z,2.70
2023-02-25T07:05:29.473Z,2.70
2023-02-25T07:10:32.339Z,2.70
2023-02-25T07:15:35.336Z,2.70
2023-02-25T07:20:39.658Z,2.70
2023-02-25T07:25:41.964Z,2.70
2023-02-25T07:30:44.368Z,2.80
2023-02-25T07:35:47.268Z,2.80
2023-02-25T07:40:49.707Z,2.80
2023-02-25T07:45:52.492Z,2.90
2023-02-25T07:50:56.068Z,2.90
2023-02-25T07:55:58.409Z,2.90
2023-02-25T08:01:03.140Z,2.90
2023-02-25T08:06:08.644Z,2.90
2023-02-25T08:11:13.255Z,3.00
2023-02-25T08:16:17.786Z,3.00
2023-02-25T08:21:22.350Z,3.00
2023-02-25T08:26:27.489Z,3.10
2023-02-25T08:31:29.987Z,3.20
2023-02-25T08:36:33.235Z,3.40
2023-02-25T08:41:35.630Z,3.50
2023-02-25T08:46:38.051Z,3.50
2023-02-25T08:51:40.997Z,3.60
2023-02-25T08:56:47.406Z,3.60
2023-02-25T09:01:51.663Z,3.40
2023-02-25T09:06:54.629Z,3.30
2023-02-25T09:11:56.941Z,3.30
2023-02-25T09:16:59.444Z,3.30
2023-02-25T09:22:01.849Z,3.30
2023-02-25T09:27:08.270Z,3.40
2023-02-25T09:32:18.488Z,3.60
2023-02-25T09:37:22.133Z,3.80
2023-02-25T09:42:30.407Z,3.90
2023-02-25T09:47:46.139Z,3.90
2023-02-25T09:53:10.022Z,4.10
2023-02-25T09:58:25.236Z,4.40
2023-02-25T10:03:57.438Z,4.40
2023-02-25T10:09:06.244Z,4.00
2023-02-25T10:14:31.224Z,3.90
2023-02-25T10:19:39.594Z,3.90
2023-02-25T10:24:48.630Z,3.90
2023-02-25T10:29:55.885Z,4.00
2023-02-25T10:35:12.143Z,4.20
2023-02-25T10:40:17.943Z,4.30
2023-02-25T10:45:29.896Z,4.30
2023-02-25T10:50:45.122Z,4.30
2023-02-25T10:55:52.180Z,4.20
2023-02-25T11:01:04.708Z,4.20
2023-02-25T11:06:21.128Z,4.10
2023-02-25T11:11:35.676Z,4.00
2023-02-25T11:16:40.336Z,4.00
2023-02-25T11:21:43.338Z,4.20
2023-02-25T11:26:48.520Z,4.60
2023-02-25T11:31:56.032Z,4.60
2023-02-25T11:37:25.844Z,4.40
2023-02-25T11:42:31.088Z,4.30
2023-02-25T11:47:38.375Z,4.40
2023-02-25T11:52:43.753Z,4.50
2023-02-25T11:57:48.683Z,4.50
2023-02-25T12:03:14.396Z,4.60
2023-02-25T12:08:33.978Z,4.70
2023-02-25T12:14:13.131Z,4.40
2023-02-25T12:19:18.152Z,4.30
2023-02-25T12:24:34.971Z,4.40
2023-02-25T12:29:59.119Z,4.60
2023-02-25T12:35:19.776Z,4.60
2023-02-25T12:40:25.162Z,4.40
2023-02-25T12:45:33.946Z,4.30
2023-02-25T12:51:10.483Z,4.40
2023-02-25T12:56:53.251Z,4.50
2023-02-25T13:02:17.329Z,4.70
2023-02-25T13:07:43.042Z,4.60
2023-02-25T13:12:59.031Z,4.60
2023-02-25T13:18:01.306Z,4.50
2023-02-25T13:23:22.929Z,4.50
2023-02-25T13:28:53.765Z,4.40
2023-02-25T13:34:37.811Z,4.00
2023-02-25T13:39:57.009Z,4.00
2023-02-25T13:45:14.091Z,3.90
2023-02-25T13:50:57.152Z,3.90
2023-02-25T13:56:26.675Z,4.20
2023-02-25T14:01:50.020Z,4.30
2023-02-25T14:07:29.654Z,4.40
2023-02-25T14:13:05.155Z,4.30
2023-02-25T14:18:20.256Z,4.20
2023-02-25T14:23:41.116Z,4.10
2023-02-25T14:29:04.583Z,4.20
2023-02-25T14:34:18.242Z,4.10
2023-02-25T14:39:47.998Z,4.10
2023-02-25T14:45:14.422Z,4.10
2023-02-25T14:50:42.889Z,4.10
2023-02-25T14:56:08.584Z,4.20
2023-02-25T15:01:36.355Z,4.30
2023-02-25T15:07:08.504Z,4.40
2023-02-25T15:12:32.271Z,4.40
2023-02-25T15:17:53.135Z,4.40
2023-02-25T15:23:09.308Z,4.30
2023-02-25T15:28:29.707Z,4.30
2023-02-25T15:33:36.824Z,4.20
2023-02-25T15:38:50.179Z,4.20
2023-02-25T15:44:13.285Z,4.10
2023-02-25T15:49:27.589Z,4.00
2023-02-25T15:54:29.780Z,4.00
2023-02-25T15:59:48.589Z,3.70
2023-02-25T16:04:51.058Z,3.50
2023-02-25T16:09:57.571Z,3.40
2023-02-25T16:15:00.841Z,3.40
2023-02-25T16:20:22.124Z,3.40
2023-02-25T16:25:38.754Z,3.20
2023-02-25T16:31:16.746Z,3.20
2023-02-25T16:36:30.663Z,3.20
2023-02-25T16:41:38.479Z,3.10
2023-02-25T16:46:41.806Z,3.10
2023-02-25T16:51:45.940Z,3.10
2023-02-25T16:56:54.035Z,3.10
2023-02-25T17:02:20.367Z,3.10
2023-02-25T17:07:23.101Z,3.00
2023-02-25T17:12:45.807Z,2.90
2023-02-25T17:17:52.504Z,2.90
2023-02-25T17:22:56.956Z,2.90
2023-02-25T17:27:59.567Z,2.90
2023-02-25T17:33:02.441Z,2.90
2023-02-25T17:38:04.965Z,2.90
2023-02-25T17:43:22.176Z,2.90
2023-02-25T17:48:27.908Z,2.90
2023-02-25T17:53:40.526Z,2.90
2023-02-25T17:58:43.667Z,2.90
2023-02-25T18:03:47.809Z,2.90
2023-02-25T18:08:54.605Z,2.80
2023-02-25T18:13:57.495Z,2.80
2023-02-25T18:19:01.316Z,2.80
2023-02-25T18:24:05.956Z,2.70
2023-02-25T18:29:10.326Z,2.60
2023-02-25T18:34:13.961Z,2.50
2023-02-25T18:39:18.492Z,2.40
2023-02-25T18:44:20.826Z,2.50
2023-02-25T18:49:23.044Z,2.40
2023-02-25T18:54:25.333Z,2.50
2023-02-25T18:59:27.537Z,2.50
2023-02-25T19:04:30.175Z,2.40
2023-02-25T19:09:32.469Z,2.40
2023-02-25T19:14:34.751Z,2.30
2023-02-25T19:19:36.972Z,2.20
2023-02-25T19:24:39.495Z,2.20
2023-02-25T19:29:41.715Z,2.10
2023-02-25T19:34:44.793Z,2.10
2023-02-25T19:39:47.272Z,2.10
2023-02-25T19:44:49.488Z,2.10
2023-02-25T19:49:51.784Z,2.10
2023-02-25T19:54:54.054Z,2.10
2023-02-25T19:59:56.311Z,2.10
2023-02-25T20:04:59.255Z,2.00
2023-02-25T20:10:01.548Z,2.00
2023-02-25T20:15:05.822Z,2.00
2023-02-25T20:20:09.270Z,2.00
2023-02-25T20:25:13.406Z,1.90
2023-02-25T20:30:17.645Z,1.80
2023-02-25T20:35:22.025Z,1.90
2023-02-25T20:40:24.424Z,1.80
2023-02-25T20:45:29.697Z,1.70
2023-02-25T20:50:32.381Z,1.70
2023-02-25T20:55:34.678Z,1.60
2023-02-25T21:00:38.303Z,1.60
2023-02-25T21:05:41.220Z,1.70
2023-02-25T21:10:43.484Z,1.70
2023-02-25T21:15:45.810Z,1.70
2023-02-25T21:20:48.019Z,1.70
2023-02-25T21:25:50.242Z,1.70
2023-02-25T21:30:59.706Z,1.60
2023-02-25T21:36:02.490Z,1.60
2023-02-25T21:41:11.441Z,1.60
2023-02-25T21:46:16.290Z,1.60
2023-02-25T21:51:22.678Z,1.60
2023-02-25T21:56:27.067Z,1.60
2023-02-25T22:01:38.488Z,1.60
2023-02-25T22:06:43.115Z,1.50
2023-02-25T22:11:45.503Z,1.40
2023-02-25T22:16:48.577Z,1.40
2023-02-25T22:21:51.583Z,1.30
2023-02-25T22:26:53.809Z,1.40
2023-02-25T22:31:56.114Z,1.50
2023-02-25T22:36:59.028Z,1.60
2023-02-25T22:42:01.244Z,1.60
2023-02-25T22:47:04.041Z,1.40
2023-02-25T22:52:06.375Z,1.30
2023-02-25T22:57:08.646Z,1.20
2023-02-25T23:02:10.873Z,1.20
2023-02-25T23:07:13.508Z,1.10
2023-02-25T23:12:16.812Z,1.20
2023-02-25T23:17:19.094Z,1.20
2023-02-25T23:22:25.634Z,1.20
2023-02-25T23:27:27.904Z,1.20
2023-02-25T23:32:30.288Z,1.20
2023-02-25T23:37:32.585Z,1.30
2023-02-25T23:42:34.796Z,1.30
2023-02-25T23:47:38.350Z,1.30
2023-02-25T23:52:40.594Z,1.20
2023-02-25T23:57:42.901Z,1.20
